sensor_id;sensor_type;location;lat;lon;timestamp;temperature;humidity
71188;DHT22;58893;53.130;8.158;2023-01-20T00:02:13;5.00;71.30
71188;DHT22;58893;53.130;8.158;2023-01-20T00:04:41;4.90;71.20
71188;DHT22;58893;53.130;8.158;2023-01-20T00:07:06;4.90;71.30
71188;DHT22;58893;53.130;8.158;2023-01-20T00:09:32;4.90;71.30
71188;DHT22;58893;53.130;8.158;2023-01-20T00:11:58;4.90;71.30
71188;DHT22;58893;53.130;8.158;2023-01-20T00:14:23;4.90;71.40
71188;DHT22;58893;53.130;8.158;2023-01-20T00:16:50;4.90;71.40
71188;DHT22;58893;53.130;8.158;2023-01-20T00:19:15;4.90;71.50
71188;DHT22;58893;53.130;8.158;2023-01-20T00:21:41;4.90;71.50
71188;DHT22;58893;53.130;8.158;2023-01-20T00:24:07;4.90;71.50
71188;DHT22;58893;53.130;8.158;2023-01-20T00:26:33;4.80;71.40
71188;DHT22;58893;53.130;8.158;2023-01-20T00:28:58;5.40;85.30
71188;DHT22;58893;53.130;8.158;2023-01-20T00:31:26;4.80;71.40
71188;DHT22;58893;53.130;8.158;2023-01-20T00:33:54;4.80;71.40
71188;DHT22;58893;53.130;8.158;2023-01-20T00:36:21;4.80;71.40
71188;DHT22;58893;53.130;8.158;2023-01-20T00:38:48;4.80;71.50
71188;DHT22;58893;53.130;8.158;2023-01-20T00:41:14;4.80;71.50
71188;DHT22;58893;53.130;8.158;2023-01-20T00:43:40;4.80;71.60
71188;DHT22;58893;53.130;8.158;2023-01-20T00:46:06;4.70;71.60
71188;DHT22;58893;53.130;8.158;2023-01-20T00:48:32;4.70;71.80
71188;DHT22;58893;53.130;8.158;2023-01-20T00:50:58;4.70;72.00
71188;DHT22;58893;53.130;8.158;2023-01-20T00:53:24;4.70;72.10
71188;DHT22;58893;53.130;8.158;2023-01-20T00:55:50;4.70;72.20
71188;DHT22;58893;53.130;8.158;2023-01-20T00:58:16;4.70;72.40
71188;DHT22;58893;53.130;8.158;2023-01-20T01:00:42;4.70;72.60
71188;DHT22;58893;53.130;8.158;2023-01-20T01:03:08;4.70;72.80
71188;DHT22;58893;53.130;8.158;2023-01-20T01:05:35;4.70;73.00
71188;DHT22;58893;53.130;8.158;2023-01-20T01:08:01;4.60;73.00
71188;DHT22;58893;53.130;8.158;2023-01-20T01:10:26;4.60;73.20
71188;DHT22;58893;53.130;8.158;2023-01-20T01:12:52;4.60;73.30
71188;DHT22;58893;53.130;8.158;2023-01-20T01:15:18;4.60;73.40
71188;DHT22;58893;53.130;8.158;2023-01-20T01:17:43;4.60;73.50
71188;DHT22;58893;53.130;8.158;2023-01-20T01:20:12;4.60;73.60
71188;DHT22;58893;53.130;8.158;2023-01-20T01:22:38;4.60;73.80
71188;DHT22;58893;53.130;8.158;2023-01-20T01:25:05;4.60;73.80
71188;DHT22;58893;53.130;8.158;2023-01-20T01:27:30;4.60;73.90
71188;DHT22;58893;53.130;8.158;2023-01-20T01:29:56;4.60;74.00
71188;DHT22;58893;53.130;8.158;2023-01-20T01:32:22;4.50;73.90
71188;DHT22;58893;53.130;8.158;2023-01-20T01:34:47;4.50;74.00
71188;DHT22;58893;53.130;8.158;2023-01-20T01:37:13;4.50;74.10
71188;DHT22;58893;53.130;8.158;2023-01-20T01:39:39;4.50;74.30
71188;DHT22;58893;53.130;8.158;2023-01-20T01:42:16;4.50;74.60
71188;DHT22;58893;53.130;8.158;2023-01-20T01:45:20;4.50;74.90
71188;DHT22;58893;53.130;8.158;2023-01-20T01:47:54;4.50;75.20
71188;DHT22;58893;53.130;8.158;2023-01-20T01:50:31;4.50;75.40
71188;DHT22;58893;53.130;8.158;2023-01-20T01:52:59;4.50;75.70
71188;DHT22;58893;53.130;8.158;2023-01-20T01:55:28;4.50;76.00
71188;DHT22;58893;53.130;8.158;2023-01-20T01:57:55;4.50;76.20
71188;DHT22;58893;53.130;8.158;2023-01-20T02:00:22;4.60;76.30
71188;DHT22;58893;53.130;8.158;2023-01-20T02:02:48;4.60;76.50
71188;DHT22;58893;53.130;8.158;2023-01-20T02:05:15;4.60;76.60
71188;DHT22;58893;53.130;8.158;2023-01-20T02:07:44;4.60;76.70
71188;DHT22;58893;53.130;8.158;2023-01-20T02:10:11;4.60;76.80
71188;DHT22;58893;53.130;8.158;2023-01-20T02:12:37;4.60;77.00
71188;DHT22;58893;53.130;8.158;2023-01-20T02:15:03;4.60;76.90
71188;DHT22;58893;53.130;8.158;2023-01-20T02:31:43;4.70;77.40
71188;DHT22;58893;53.130;8.158;2023-01-20T02:42:38;4.70;77.40
71188;DHT22;58893;53.130;8.158;2023-01-20T02:52:58;4.80;77.50
71188;DHT22;58893;53.130;8.158;2023-01-20T02:58:02;4.80;77.50
71188;DHT22;58893;53.130;8.158;2023-01-20T03:00:38;4.80;77.60
71188;DHT22;58893;53.130;8.158;2023-01-20T03:03:08;4.80;77.50
71188;DHT22;58893;53.130;8.158;2023-01-20T03:05:42;4.80;77.50
71188;DHT22;58893;53.130;8.158;2023-01-20T03:08:12;4.80;77.50
71188;DHT22;58893;53.130;8.158;2023-01-20T03:10:39;4.80;77.50
71188;DHT22;58893;53.130;8.158;2023-01-20T03:13:31;4.80;77.50
71188;DHT22;58893;53.130;8.158;2023-01-20T03:15:59;4.80;77.30
71188;DHT22;58893;53.130;8.158;2023-01-20T03:18:28;4.80;79.40
71188;DHT22;58893;53.130;8.158;2023-01-20T03:20:55;4.80;77.20
71188;DHT22;58893;53.130;8.158;2023-01-20T03:23:21;4.80;77.10
71188;DHT22;58893;53.130;8.158;2023-01-20T03:25:48;4.80;77.00
71188;DHT22;58893;53.130;8.158;2023-01-20T03:28:14;4.80;77.00
71188;DHT22;58893;53.130;8.158;2023-01-20T03:30:40;4.80;76.90
71188;DHT22;58893;53.130;8.158;2023-01-20T03:33:06;4.80;76.80
71188;DHT22;58893;53.130;8.158;2023-01-20T03:35:35;4.80;76.80
71188;DHT22;58893;53.130;8.158;2023-01-20T03:38:01;4.80;76.80
71188;DHT22;58893;53.130;8.158;2023-01-20T03:40:31;4.80;76.70
71188;DHT22;58893;53.130;8.158;2023-01-20T03:43:28;4.80;76.90
71188;DHT22;58893;53.130;8.158;2023-01-20T03:46:04;4.80;76.70
71188;DHT22;58893;53.130;8.158;2023-01-20T03:48:42;4.80;76.60
71188;DHT22;58893;53.130;8.158;2023-01-20T03:54:21;4.80;76.60
71188;DHT22;58893;53.130;8.158;2023-01-20T03:56:55;4.80;76.70
71188;DHT22;58893;53.130;8.158;2023-01-20T03:59:33;4.80;76.70
71188;DHT22;58893;53.130;8.158;2023-01-20T04:02:02;4.80;76.60
71188;DHT22;58893;53.130;8.158;2023-01-20T04:04:29;4.80;76.50
71188;DHT22;58893;53.130;8.158;2023-01-20T04:06:58;4.80;76.50
71188;DHT22;58893;53.130;8.158;2023-01-20T04:09:28;4.80;76.40
71188;DHT22;58893;53.130;8.158;2023-01-20T04:11:54;4.80;76.40
71188;DHT22;58893;53.130;8.158;2023-01-20T04:14:20;4.80;76.40
71188;DHT22;58893;53.130;8.158;2023-01-20T04:16:59;4.80;76.40
71188;DHT22;58893;53.130;8.158;2023-01-20T04:19:25;4.90;76.50
71188;DHT22;58893;53.130;8.158;2023-01-20T04:22:07;4.90;76.50
71188;DHT22;58893;53.130;8.158;2023-01-20T04:27:13;4.90;76.60
71188;DHT22;58893;53.130;8.158;2023-01-20T04:29:39;4.90;76.70
71188;DHT22;58893;53.130;8.158;2023-01-20T04:32:05;4.80;76.70
71188;DHT22;58893;53.130;8.158;2023-01-20T04:34:31;4.90;76.70
71188;DHT22;58893;53.130;8.158;2023-01-20T04:36:57;4.90;76.70
71188;DHT22;58893;53.130;8.158;2023-01-20T04:39:22;4.90;76.70
71188;DHT22;58893;53.130;8.158;2023-01-20T04:41:48;4.90;76.70
71188;DHT22;58893;53.130;8.158;2023-01-20T04:44:14;4.90;76.70
71188;DHT22;58893;53.130;8.158;2023-01-20T04:49:05;4.90;76.60
71188;DHT22;58893;53.130;8.158;2023-01-20T04:51:31;4.90;76.60
71188;DHT22;58893;53.130;8.158;2023-01-20T04:53:58;4.90;76.50
71188;DHT22;58893;53.130;8.158;2023-01-20T04:56:23;4.90;76.60
71188;DHT22;58893;53.130;8.158;2023-01-20T04:58:49;4.90;76.60
71188;DHT22;58893;53.130;8.158;2023-01-20T05:01:15;4.90;76.50
71188;DHT22;58893;53.130;8.158;2023-01-20T05:03:41;4.90;77.20
71188;DHT22;58893;53.130;8.158;2023-01-20T05:06:11;4.90;76.50
71188;DHT22;58893;53.130;8.158;2023-01-20T05:08:37;4.90;76.50
71188;DHT22;58893;53.130;8.158;2023-01-20T05:11:03;4.90;76.50
71188;DHT22;58893;53.130;8.158;2023-01-20T05:13:29;4.90;76.40
71188;DHT22;58893;53.130;8.158;2023-01-20T05:15:55;4.90;76.50
71188;DHT22;58893;53.130;8.158;2023-01-20T05:20:48;4.90;80.50
71188;DHT22;58893;53.130;8.158;2023-01-20T05:23:14;4.90;76.50
71188;DHT22;58893;53.130;8.158;2023-01-20T05:25:40;5.00;76.50
71188;DHT22;58893;53.130;8.158;2023-01-20T05:28:06;4.90;76.40
71188;DHT22;58893;53.130;8.158;2023-01-20T05:30:31;4.90;76.50
71188;DHT22;58893;53.130;8.158;2023-01-20T05:32:57;5.00;76.50
71188;DHT22;58893;53.130;8.158;2023-01-20T05:35:23;5.00;76.50
71188;DHT22;58893;53.130;8.158;2023-01-20T05:37:52;5.00;76.40
71188;DHT22;58893;53.130;8.158;2023-01-20T05:40:19;5.00;76.30
71188;DHT22;58893;53.130;8.158;2023-01-20T05:42:44;5.00;76.30
71188;DHT22;58893;53.130;8.158;2023-01-20T05:45:10;5.00;76.30
71188;DHT22;58893;53.130;8.158;2023-01-20T05:47:36;5.00;76.30
71188;DHT22;58893;53.130;8.158;2023-01-20T05:50:02;5.00;76.30
71188;DHT22;58893;53.130;8.158;2023-01-20T05:52:28;5.00;76.30
71188;DHT22;58893;53.130;8.158;2023-01-20T05:54:53;5.00;76.30
71188;DHT22;58893;53.130;8.158;2023-01-20T05:57:22;5.00;76.30
71188;DHT22;58893;53.130;8.158;2023-01-20T05:59:47;5.00;76.50
71188;DHT22;58893;53.130;8.158;2023-01-20T06:02:15;5.00;76.20
71188;DHT22;58893;53.130;8.158;2023-01-20T06:04:46;5.00;76.20
71188;DHT22;58893;53.130;8.158;2023-01-20T06:07:13;5.00;76.20
71188;DHT22;58893;53.130;8.158;2023-01-20T06:09:39;5.00;76.30
71188;DHT22;58893;53.130;8.158;2023-01-20T06:12:05;5.00;76.20
71188;DHT22;58893;53.130;8.158;2023-01-20T06:14:30;5.00;76.20
71188;DHT22;58893;53.130;8.158;2023-01-20T06:16:56;5.00;76.10
71188;DHT22;58893;53.130;8.158;2023-01-20T06:19:37;5.00;76.10
71188;DHT22;58893;53.130;8.158;2023-01-20T06:22:03;5.00;76.00
71188;DHT22;58893;53.130;8.158;2023-01-20T06:24:29;5.00;76.10
71188;DHT22;58893;53.130;8.158;2023-01-20T06:26:54;5.00;76.10
71188;DHT22;58893;53.130;8.158;2023-01-20T06:29:20;5.00;76.00
71188;DHT22;58893;53.130;8.158;2023-01-20T06:31:46;5.00;76.00
71188;DHT22;58893;53.130;8.158;2023-01-20T06:34:12;5.00;75.90
71188;DHT22;58893;53.130;8.158;2023-01-20T06:36:38;5.00;75.90
71188;DHT22;58893;53.130;8.158;2023-01-20T06:39:04;5.00;75.90
71188;DHT22;58893;53.130;8.158;2023-01-20T06:41:30;5.00;75.90
71188;DHT22;58893;53.130;8.158;2023-01-20T06:43:55;5.00;75.90
71188;DHT22;58893;53.130;8.158;2023-01-20T06:46:21;5.00;75.90
71188;DHT22;58893;53.130;8.158;2023-01-20T06:48:47;5.00;75.70
71188;DHT22;58893;53.130;8.158;2023-01-20T06:51:16;5.00;75.60
71188;DHT22;58893;53.130;8.158;2023-01-20T06:53:42;5.00;75.50
71188;DHT22;58893;53.130;8.158;2023-01-20T06:56:10;5.00;75.40
71188;DHT22;58893;53.130;8.158;2023-01-20T06:58:36;5.00;75.40
71188;DHT22;58893;53.130;8.158;2023-01-20T07:01:19;5.00;75.40
71188;DHT22;58893;53.130;8.158;2023-01-20T07:03:45;5.00;75.30
71188;DHT22;58893;53.130;8.158;2023-01-20T07:06:16;5.00;75.30
71188;DHT22;58893;53.130;8.158;2023-01-20T07:08:43;5.00;75.30
71188;DHT22;58893;53.130;8.158;2023-01-20T07:11:09;5.00;75.30
71188;DHT22;58893;53.130;8.158;2023-01-20T07:13:35;5.00;75.30
71188;DHT22;58893;53.130;8.158;2023-01-20T07:16:00;5.00;75.30
71188;DHT22;58893;53.130;8.158;2023-01-20T07:18:26;5.00;75.30
71188;DHT22;58893;53.130;8.158;2023-01-20T07:20:53;5.00;75.20
71188;DHT22;58893;53.130;8.158;2023-01-20T07:23:19;5.00;75.30
71188;DHT22;58893;53.130;8.158;2023-01-20T07:25:44;5.00;75.30
71188;DHT22;58893;53.130;8.158;2023-01-20T07:28:10;5.00;75.30
71188;DHT22;58893;53.130;8.158;2023-01-20T07:30:35;5.10;75.30
71188;DHT22;58893;53.130;8.158;2023-01-20T07:33:01;5.00;75.20
71188;DHT22;58893;53.130;8.158;2023-01-20T07:35:26;5.00;75.20
71188;DHT22;58893;53.130;8.158;2023-01-20T07:37:52;5.10;75.20
71188;DHT22;58893;53.130;8.158;2023-01-20T07:40:18;5.10;75.10
71188;DHT22;58893;53.130;8.158;2023-01-20T07:42:43;5.00;74.80
71188;DHT22;58893;53.130;8.158;2023-01-20T07:45:09;5.10;75.40
71188;DHT22;58893;53.130;8.158;2023-01-20T07:47:35;5.10;74.60
71188;DHT22;58893;53.130;8.158;2023-01-20T07:50:00;5.00;74.40
71188;DHT22;58893;53.130;8.158;2023-01-20T07:52:26;5.00;74.40
71188;DHT22;58893;53.130;8.158;2023-01-20T07:54:52;5.10;74.40
71188;DHT22;58893;53.130;8.158;2023-01-20T07:57:17;5.00;74.30
71188;DHT22;58893;53.130;8.158;2023-01-20T07:59:43;5.10;74.30
71188;DHT22;58893;53.130;8.158;2023-01-20T08:02:09;5.10;74.40
71188;DHT22;58893;53.130;8.158;2023-01-20T08:04:35;5.00;74.30
71188;DHT22;58893;53.130;8.158;2023-01-20T08:07:00;5.10;74.50
71188;DHT22;58893;53.130;8.158;2023-01-20T08:09:26;5.10;74.50
71188;DHT22;58893;53.130;8.158;2023-01-20T08:11:52;5.10;74.50
71188;DHT22;58893;53.130;8.158;2023-01-20T08:14:17;5.10;74.50
71188;DHT22;58893;53.130;8.158;2023-01-20T08:16:43;5.10;74.50
71188;DHT22;58893;53.130;8.158;2023-01-20T08:19:09;5.10;74.50
71188;DHT22;58893;53.130;8.158;2023-01-20T08:21:34;5.10;74.60
71188;DHT22;58893;53.130;8.158;2023-01-20T08:24:02;5.10;74.60
71188;DHT22;58893;53.130;8.158;2023-01-20T08:26:29;5.10;74.60
71188;DHT22;58893;53.130;8.158;2023-01-20T08:29:04;5.10;74.70
71188;DHT22;58893;53.130;8.158;2023-01-20T08:31:30;5.10;74.70
71188;DHT22;58893;53.130;8.158;2023-01-20T08:33:59;5.10;74.70
71188;DHT22;58893;53.130;8.158;2023-01-20T08:36:30;5.20;75.40
71188;DHT22;58893;53.130;8.158;2023-01-20T08:38:59;5.20;74.70
71188;DHT22;58893;53.130;8.158;2023-01-20T08:41:29;5.10;74.50
71188;DHT22;58893;53.130;8.158;2023-01-20T08:43:58;5.20;75.30
71188;DHT22;58893;53.130;8.158;2023-01-20T08:46:23;5.10;74.70
71188;DHT22;58893;53.130;8.158;2023-01-20T08:48:50;5.20;74.50
71188;DHT22;58893;53.130;8.158;2023-01-20T08:51:19;5.20;74.50
71188;DHT22;58893;53.130;8.158;2023-01-20T08:53:45;5.20;74.50
71188;DHT22;58893;53.130;8.158;2023-01-20T08:56:11;5.20;74.50
71188;DHT22;58893;53.130;8.158;2023-01-20T08:58:38;5.20;74.50
71188;DHT22;58893;53.130;8.158;2023-01-20T09:01:09;5.30;74.60
71188;DHT22;58893;53.130;8.158;2023-01-20T09:06:02;5.30;73.70
71188;DHT22;58893;53.130;8.158;2023-01-20T09:08:30;5.30;74.20
71188;DHT22;58893;53.130;8.158;2023-01-20T09:13:28;5.30;74.00
71188;DHT22;58893;53.130;8.158;2023-01-20T09:15:54;5.30;73.90
71188;DHT22;58893;53.130;8.158;2023-01-20T09:18:19;5.30;73.90
71188;DHT22;58893;53.130;8.158;2023-01-20T09:20:45;5.30;73.90
71188;DHT22;58893;53.130;8.158;2023-01-20T09:23:10;5.30;73.90
71188;DHT22;58893;53.130;8.158;2023-01-20T09:25:36;5.30;73.80
71188;DHT22;58893;53.130;8.158;2023-01-20T09:28:02;5.40;73.90
71188;DHT22;58893;53.130;8.158;2023-01-20T09:30:27;5.40;73.90
71188;DHT22;58893;53.130;8.158;2023-01-20T09:32:53;5.40;73.70
71188;DHT22;58893;53.130;8.158;2023-01-20T09:35:21;5.40;73.70
71188;DHT22;58893;53.130;8.158;2023-01-20T09:37:46;5.40;73.60
71188;DHT22;58893;53.130;8.158;2023-01-20T09:40:49;5.40;73.40
71188;DHT22;58893;53.130;8.158;2023-01-20T09:49:19;5.50;73.00
71188;DHT22;58893;53.130;8.158;2023-01-20T09:52:12;5.40;72.80
71188;DHT22;58893;53.130;8.158;2023-01-20T09:55:08;5.40;72.60
71188;DHT22;58893;53.130;8.158;2023-01-20T09:57:37;5.50;72.60
71188;DHT22;58893;53.130;8.158;2023-01-20T10:00:12;5.50;72.60
71188;DHT22;58893;53.130;8.158;2023-01-20T10:02:45;5.50;72.60
71188;DHT22;58893;53.130;8.158;2023-01-20T10:05:18;5.50;72.50
71188;DHT22;58893;53.130;8.158;2023-01-20T10:10:30;5.50;72.50
71188;DHT22;58893;53.130;8.158;2023-01-20T10:13:07;5.50;72.60
71188;DHT22;58893;53.130;8.158;2023-01-20T10:15:36;5.50;72.70
71188;DHT22;58893;53.130;8.158;2023-01-20T10:18:23;5.60;73.00
71188;DHT22;58893;53.130;8.158;2023-01-20T10:21:11;5.60;73.00
71188;DHT22;58893;53.130;8.158;2023-01-20T10:32:23;5.60;73.10
71188;DHT22;58893;53.130;8.158;2023-01-20T10:34:48;5.60;73.20
71188;DHT22;58893;53.130;8.158;2023-01-20T10:37:15;5.60;72.90
71188;DHT22;58893;53.130;8.158;2023-01-20T10:39:44;5.60;72.70
71188;DHT22;58893;53.130;8.158;2023-01-20T10:42:15;5.60;72.40
71188;DHT22;58893;53.130;8.158;2023-01-20T10:44:41;5.60;72.10
71188;DHT22;58893;53.130;8.158;2023-01-20T10:50:44;5.60;71.70
71188;DHT22;58893;53.130;8.158;2023-01-20T10:53:34;5.60;71.70
71188;DHT22;58893;53.130;8.158;2023-01-20T10:58:39;5.60;71.40
71188;DHT22;58893;53.130;8.158;2023-01-20T11:01:10;5.60;71.50
71188;DHT22;58893;53.130;8.158;2023-01-20T11:03:43;5.60;71.60
71188;DHT22;58893;53.130;8.158;2023-01-20T11:06:23;5.60;71.80
71188;DHT22;58893;53.130;8.158;2023-01-20T11:08:51;5.60;72.00
71188;DHT22;58893;53.130;8.158;2023-01-20T11:11:23;5.50;72.00
71188;DHT22;58893;53.130;8.158;2023-01-20T11:13:49;5.50;71.90
71188;DHT22;58893;53.130;8.158;2023-01-20T11:16:25;5.60;72.00
71188;DHT22;58893;53.130;8.158;2023-01-20T11:19:01;5.60;71.90
71188;DHT22;58893;53.130;8.158;2023-01-20T11:21:30;5.60;71.90
71188;DHT22;58893;53.130;8.158;2023-01-20T11:23:58;5.60;71.80
71188;DHT22;58893;53.130;8.158;2023-01-20T11:26:33;5.60;71.70
71188;DHT22;58893;53.130;8.158;2023-01-20T11:34:31;5.60;71.50
71188;DHT22;58893;53.130;8.158;2023-01-20T11:39:31;5.70;71.40
71188;DHT22;58893;53.130;8.158;2023-01-20T11:42:14;5.60;71.20
71188;DHT22;58893;53.130;8.158;2023-01-20T11:44:41;5.60;71.20
71188;DHT22;58893;53.130;8.158;2023-01-20T11:47:26;5.70;71.20
71188;DHT22;58893;53.130;8.158;2023-01-20T11:52:39;5.70;71.20
71188;DHT22;58893;53.130;8.158;2023-01-20T12:05:58;5.70;70.70
71188;DHT22;58893;53.130;8.158;2023-01-20T12:08:41;5.80;70.80
71188;DHT22;58893;53.130;8.158;2023-01-20T12:11:11;5.80;70.80
71188;DHT22;58893;53.130;8.158;2023-01-20T12:13:43;5.80;70.90
71188;DHT22;58893;53.130;8.158;2023-01-20T12:16:32;5.80;71.60
71188;DHT22;58893;53.130;8.158;2023-01-20T12:19:02;5.80;70.70
71188;DHT22;58893;53.130;8.158;2023-01-20T12:21:33;5.80;70.60
71188;DHT22;58893;53.130;8.158;2023-01-20T12:26:41;5.90;70.40
71188;DHT22;58893;53.130;8.158;2023-01-20T12:31:38;5.90;70.40
71188;DHT22;58893;53.130;8.158;2023-01-20T12:34:10;5.90;70.30
71188;DHT22;58893;53.130;8.158;2023-01-20T12:45:06;5.90;70.10
71188;DHT22;58893;53.130;8.158;2023-01-20T12:54:02;6.00;70.00
71188;DHT22;58893;53.130;8.158;2023-01-20T12:56:50;6.00;70.00
71188;DHT22;58893;53.130;8.158;2023-01-20T12:59:42;6.00;70.00
71188;DHT22;58893;53.130;8.158;2023-01-20T13:02:31;6.00;69.90
71188;DHT22;58893;53.130;8.158;2023-01-20T13:05:19;6.00;69.90
71188;DHT22;58893;53.130;8.158;2023-01-20T13:08:21;6.00;69.80
71188;DHT22;58893;53.130;8.158;2023-01-20T13:13:35;6.00;69.70
71188;DHT22;58893;53.130;8.158;2023-01-20T13:18:55;6.00;69.10
71188;DHT22;58893;53.130;8.158;2023-01-20T13:21:32;5.90;68.50
71188;DHT22;58893;53.130;8.158;2023-01-20T13:24:00;5.90;68.70
71188;DHT22;58893;53.130;8.158;2023-01-20T13:26:28;5.90;68.60
71188;DHT22;58893;53.130;8.158;2023-01-20T13:28:56;5.90;68.40
71188;DHT22;58893;53.130;8.158;2023-01-20T13:34:34;5.90;68.60
71188;DHT22;58893;53.130;8.158;2023-01-20T13:47:57;6.00;68.90
71188;DHT22;58893;53.130;8.158;2023-01-20T13:55:48;6.00;68.90
71188;DHT22;58893;53.130;8.158;2023-01-20T13:58:18;6.00;68.60
71188;DHT22;58893;53.130;8.158;2023-01-20T14:00:46;6.00;68.30
71188;DHT22;58893;53.130;8.158;2023-01-20T14:08:44;5.90;67.80
71188;DHT22;58893;53.130;8.158;2023-01-20T14:11:13;5.90;67.70
71188;DHT22;58893;53.130;8.158;2023-01-20T14:13:40;5.90;67.80
71188;DHT22;58893;53.130;8.158;2023-01-20T14:16:38;5.90;67.90
71188;DHT22;58893;53.130;8.158;2023-01-20T14:19:22;5.80;68.00
71188;DHT22;58893;53.130;8.158;2023-01-20T14:21:55;5.90;68.20
71188;DHT22;58893;53.130;8.158;2023-01-20T14:24:28;5.90;68.20
71188;DHT22;58893;53.130;8.158;2023-01-20T14:29:38;5.90;68.20
71188;DHT22;58893;53.130;8.158;2023-01-20T14:34:56;5.90;68.00
71188;DHT22;58893;53.130;8.158;2023-01-20T14:37:34;5.90;67.90
71188;DHT22;58893;53.130;8.158;2023-01-20T14:42:31;5.90;67.90
71188;DHT22;58893;53.130;8.158;2023-01-20T14:44:57;5.90;67.90
71188;DHT22;58893;53.130;8.158;2023-01-20T14:47:24;5.90;67.60
71188;DHT22;58893;53.130;8.158;2023-01-20T14:49:51;5.80;67.40
71188;DHT22;58893;53.130;8.158;2023-01-20T14:52:23;5.90;67.30
71188;DHT22;58893;53.130;8.158;2023-01-20T14:54:50;5.80;67.20
71188;DHT22;58893;53.130;8.158;2023-01-20T14:57:28;5.80;67.30
71188;DHT22;58893;53.130;8.158;2023-01-20T15:02:33;5.80;67.40
71188;DHT22;58893;53.130;8.158;2023-01-20T15:05:00;5.80;67.50
71188;DHT22;58893;53.130;8.158;2023-01-20T15:07:26;5.80;67.50
71188;DHT22;58893;53.130;8.158;2023-01-20T15:10:15;5.80;67.50
71188;DHT22;58893;53.130;8.158;2023-01-20T15:15:27;5.80;67.60
71188;DHT22;58893;53.130;8.158;2023-01-20T15:20:55;5.80;67.90
71188;DHT22;58893;53.130;8.158;2023-01-20T15:23:31;5.80;67.90
71188;DHT22;58893;53.130;8.158;2023-01-20T15:26:21;5.80;67.90
71188;DHT22;58893;53.130;8.158;2023-01-20T15:28:47;5.80;67.90
71188;DHT22;58893;53.130;8.158;2023-01-20T15:31:15;5.80;67.80
71188;DHT22;58893;53.130;8.158;2023-01-20T15:33:41;5.80;67.70
71188;DHT22;58893;53.130;8.158;2023-01-20T15:36:33;5.80;67.70
71188;DHT22;58893;53.130;8.158;2023-01-20T15:39:01;5.70;67.60
71188;DHT22;58893;53.130;8.158;2023-01-20T15:41:27;5.70;67.60
71188;DHT22;58893;53.130;8.158;2023-01-20T15:43:53;5.70;67.60
71188;DHT22;58893;53.130;8.158;2023-01-20T15:46:18;5.70;67.60
71188;DHT22;58893;53.130;8.158;2023-01-20T15:48:44;5.70;67.70
71188;DHT22;58893;53.130;8.158;2023-01-20T15:51:17;5.70;67.50
71188;DHT22;58893;53.130;8.158;2023-01-20T15:53:43;5.70;67.30
71188;DHT22;58893;53.130;8.158;2023-01-20T15:58:45;5.70;67.30
71188;DHT22;58893;53.130;8.158;2023-01-20T16:01:13;5.70;67.30
71188;DHT22;58893;53.130;8.158;2023-01-20T16:03:40;5.70;67.30
71188;DHT22;58893;53.130;8.158;2023-01-20T16:06:11;5.70;67.10
71188;DHT22;58893;53.130;8.158;2023-01-20T16:08:37;5.60;67.10
71188;DHT22;58893;53.130;8.158;2023-01-20T16:11:04;5.60;67.10
71188;DHT22;58893;53.130;8.158;2023-01-20T16:13:29;5.60;67.00
71188;DHT22;58893;53.130;8.158;2023-01-20T16:15:56;5.60;67.00
71188;DHT22;58893;53.130;8.158;2023-01-20T16:18:21;5.60;67.10
71188;DHT22;58893;53.130;8.158;2023-01-20T16:20:48;5.60;67.20
71188;DHT22;58893;53.130;8.158;2023-01-20T16:23:14;5.60;67.50
71188;DHT22;58893;53.130;8.158;2023-01-20T16:25:40;5.60;67.80
71188;DHT22;58893;53.130;8.158;2023-01-20T16:28:24;5.60;67.90
71188;DHT22;58893;53.130;8.158;2023-01-20T16:30:51;5.50;67.90
71188;DHT22;58893;53.130;8.158;2023-01-20T16:33:19;5.50;67.90
71188;DHT22;58893;53.130;8.158;2023-01-20T16:35:45;5.50;67.90
71188;DHT22;58893;53.130;8.158;2023-01-20T16:38:13;5.50;67.70
71188;DHT22;58893;53.130;8.158;2023-01-20T16:40:52;5.50;68.00
71188;DHT22;58893;53.130;8.158;2023-01-20T16:43:21;5.50;67.40
71188;DHT22;58893;53.130;8.158;2023-01-20T16:45:48;5.40;67.30
71188;DHT22;58893;53.130;8.158;2023-01-20T16:48:19;5.50;67.50
71188;DHT22;58893;53.130;8.158;2023-01-20T16:50:45;5.40;67.60
71188;DHT22;58893;53.130;8.158;2023-01-20T16:53:12;5.40;67.80
71188;DHT22;58893;53.130;8.158;2023-01-20T16:55:38;5.40;68.00
71188;DHT22;58893;53.130;8.158;2023-01-20T16:58:03;5.30;68.10
71188;DHT22;58893;53.130;8.158;2023-01-20T17:00:31;5.30;68.00
71188;DHT22;58893;53.130;8.158;2023-01-20T17:02:56;5.30;68.00
71188;DHT22;58893;53.130;8.158;2023-01-20T17:05:22;5.30;68.00
71188;DHT22;58893;53.130;8.158;2023-01-20T17:07:51;5.20;68.10
71188;DHT22;58893;53.130;8.158;2023-01-20T17:10:17;5.20;68.10
71188;DHT22;58893;53.130;8.158;2023-01-20T17:12:44;5.10;68.10
71188;DHT22;58893;53.130;8.158;2023-01-20T17:15:10;5.10;68.50
71188;DHT22;58893;53.130;8.158;2023-01-20T17:17:36;5.00;68.20
71188;DHT22;58893;53.130;8.158;2023-01-20T17:20:06;5.00;68.30
71188;DHT22;58893;53.130;8.158;2023-01-20T17:22:38;5.00;68.50
71188;DHT22;58893;53.130;8.158;2023-01-20T17:25:08;4.90;68.60
71188;DHT22;58893;53.130;8.158;2023-01-20T17:27:35;4.90;68.80
71188;DHT22;58893;53.130;8.158;2023-01-20T17:30:02;4.90;68.90
71188;DHT22;58893;53.130;8.158;2023-01-20T17:32:28;4.80;69.00
71188;DHT22;58893;53.130;8.158;2023-01-20T17:34:53;4.80;69.20
71188;DHT22;58893;53.130;8.158;2023-01-20T17:37:19;4.80;70.00
71188;DHT22;58893;53.130;8.158;2023-01-20T17:39:45;4.80;69.50
71188;DHT22;58893;53.130;8.158;2023-01-20T17:42:10;4.70;69.50
71188;DHT22;58893;53.130;8.158;2023-01-20T17:44:36;4.70;69.50
71188;DHT22;58893;53.130;8.158;2023-01-20T17:47:03;4.70;69.50
71188;DHT22;58893;53.130;8.158;2023-01-20T17:49:29;4.70;70.40
71188;DHT22;58893;53.130;8.158;2023-01-20T17:51:55;4.60;70.30
71188;DHT22;58893;53.130;8.158;2023-01-20T17:54:20;4.60;69.80
71188;DHT22;58893;53.130;8.158;2023-01-20T17:56:46;4.60;69.90
71188;DHT22;58893;53.130;8.158;2023-01-20T17:59:13;4.60;70.00
71188;DHT22;58893;53.130;8.158;2023-01-20T18:01:38;4.50;70.00
71188;DHT22;58893;53.130;8.158;2023-01-20T18:04:04;4.50;70.10
71188;DHT22;58893;53.130;8.158;2023-01-20T18:06:31;4.50;70.10
71188;DHT22;58893;53.130;8.158;2023-01-20T18:09:00;4.50;70.20
71188;DHT22;58893;53.130;8.158;2023-01-20T18:11:28;4.50;70.30
71188;DHT22;58893;53.130;8.158;2023-01-20T18:13:56;4.40;70.30
71188;DHT22;58893;53.130;8.158;2023-01-20T18:16:25;4.40;70.40
71188;DHT22;58893;53.130;8.158;2023-01-20T18:18:51;4.40;70.60
71188;DHT22;58893;53.130;8.158;2023-01-20T18:21:22;4.40;70.70
71188;DHT22;58893;53.130;8.158;2023-01-20T18:23:49;4.40;70.80
71188;DHT22;58893;53.130;8.158;2023-01-20T18:26:17;4.40;70.80
71188;DHT22;58893;53.130;8.158;2023-01-20T18:28:43;4.40;70.90
71188;DHT22;58893;53.130;8.158;2023-01-20T18:31:11;4.40;71.10
71188;DHT22;58893;53.130;8.158;2023-01-20T18:33:39;4.40;71.20
71188;DHT22;58893;53.130;8.158;2023-01-20T18:36:10;4.40;71.40
71188;DHT22;58893;53.130;8.158;2023-01-20T18:38:36;4.40;71.50
71188;DHT22;58893;53.130;8.158;2023-01-20T18:41:12;4.30;71.40